Terminal Aerodrome Forecast
Issued by NWS Brownsville, TX

Home | Current Version | Previous Version | Text Only | Print | Product List | Glossary On
Versions: 1 2 3 4 5 6 7 8 9 10 11 12 13 14 15 16
995
FTUS44 KBRO 262328
TAFBRO
TAF
KBRO 262328Z 2700/2724 15016G22KT P6SM FEW030
     FM270200 16008KT P6SM SCT025
      TEMPO 2709/2713 5SM BR BKN025
     FM271400 16012KT P6SM BKN035
     FM271800 17015G22KT P6SM SCT040=

USA.gov is the U.S. government's official web portal to all federal, state and local government web resources and services.